Jamestown, North Dakota
Current Conditions -  °F | °C
As of 3:56 PM on Wednesday 28 Jan 2015 (Local Time) from KJMS Reporting Station
Overcast Overcast  
Wind Chill: 22°   Ceiling: 900
Heat Index: 33°   Visibility: 7mi
Dew Point: 31°   Wind: 18mph
Humidity: 92%   Direction: 330°NNW
Pressure: 29.82"   Gusts: 26mph
Location:  46.91°N, 98.71°W
Report Text: KJMS 282156Z AUTO 33016G23KT 7SM BKN009 OVC014 01/M01 A2982 RMK AO2 PK WND 34027/2110 CIG 006V012 SLP115 T00061006
Loading
Personal Weather Stations






























Interactive Weather Map New forecast layout! Learn more

10-Day Weather Forecast

Advertisements
Track Severe Weather on mobile